Time;durP1;ratioP1;P1;durP2;ratioP2;P2;SDS_P1;SDS_P2;PMS_P1;PMS_P2;Temp;Humidity;BMP_temperature;BMP_pressure;BME280_temperature;BME280_humidity;BME280_pressure;Samples;Min_cycle;Max_cycle;Signal;HPM_P1;HPM_P2
2023/09/05 00:02:16;;;;;;;7.57;6.30;;;;;;;19.44;65.73;101877.00;5055314;28;20465;-67
2023/09/05 00:04:47;;;;;;;6.90;6.30;;;;;;;19.44;65.80;101880.66;5052444;28;20096;-66
2023/09/05 00:07:13;;;;;;;8.98;6.47;;;;;;;19.38;65.86;101879.00;5063201;28;20040;-67
2023/09/05 00:09:38;;;;;;;8.75;7.45;;;;;;;19.37;65.75;101872.53;5088365;28;20071;-67
2023/09/05 00:12:04;;;;;;;7.93;6.63;;;;;;;19.34;65.93;101869.44;5052377;28;20057;-67
2023/09/05 00:14:30;;;;;;;7.03;6.40;;;;;;;19.32;66.04;101866.91;5054158;28;20029;-67
2023/09/05 00:16:55;;;;;;;7.38;6.57;;;;;;;19.25;66.00;101863.53;5068084;28;20028;-68
2023/09/05 00:19:20;;;;;;;7.35;6.65;;;;;;;19.19;65.95;101866.69;5052569;28;20057;-68
2023/09/05 00:21:46;;;;;;;7.35;6.65;;;;;;;19.22;66.10;101861.31;5062210;28;20074;-67
2023/09/05 00:24:35;;;;;;;7.70;6.65;;;;;;;19.26;65.73;101862.44;5074371;28;20028;-67
2023/09/05 00:27:03;;;;;;;8.35;6.65;;;;;;;19.18;65.70;101868.66;5054306;28;20044;-67
2023/09/05 00:29:30;;;;;;;8.48;7.28;;;;;;;19.16;65.85;101867.25;5054843;28;20044;-67
2023/09/05 00:31:59;;;;;;;9.38;6.43;;;;;;;19.08;66.05;101871.50;5072196;28;20020;-67
2023/09/05 00:34:32;;;;;;;7.70;6.90;;;;;;;19.10;65.90;101866.44;5066100;28;20033;-67
2023/09/05 00:37:00;;;;;;;7.35;6.65;;;;;;;19.06;65.87;101859.66;5067275;28;20460;-67
2023/09/05 00:39:26;;;;;;;8.50;6.38;;;;;;;19.03;66.16;101865.88;5071182;28;20029;-67
2023/09/05 00:41:51;;;;;;;7.45;6.50;;;;;;;19.08;65.81;101868.69;5063540;28;20365;-67
2023/09/05 00:44:17;;;;;;;7.95;7.00;;;;;;;18.99;66.17;101873.22;5072644;28;20025;-67
2023/09/05 00:46:45;;;;;;;9.90;7.03;;;;;;;18.95;66.14;101877.72;5071858;28;20029;-67
2023/09/05 00:49:15;;;;;;;8.63;6.65;;;;;;;18.95;66.17;101883.34;5067889;28;20029;-67
2023/09/05 00:51:49;;;;;;;9.75;7.35;;;;;;;18.93;66.15;101866.75;5068981;28;20091;-67
2023/09/05 00:54:14;;;;;;;7.78;6.97;;;;;;;18.85;66.13;101873.78;5092049;28;20028;-67
2023/09/05 00:56:39;;;;;;;8.48;6.55;;;;;;;18.88;65.99;101881.66;5085528;28;20024;-67
2023/09/05 00:59:05;;;;;;;7.20;6.50;;;;;;;18.86;66.04;101874.63;5058255;28;20033;-67
2023/09/05 01:01:31;;;;;;;16.60;7.47;;;;;;;18.83;66.16;101869.59;5058303;28;20496;-67
2023/09/05 01:04:00;;;;;;;8.25;6.60;;;;;;;18.82;66.11;101865.94;5072279;28;20111;-67
2023/09/05 01:06:54;;;;;;;7.93;7.13;;;;;;;18.83;66.27;101866.78;5069386;28;20021;-67
2023/09/05 01:09:38;;;;;;;7.65;6.95;;;;;;;18.74;65.93;101866.47;5073447;28;20055;-67
2023/09/05 01:12:05;;;;;;;8.50;6.28;;;;;;;18.71;66.26;101869.88;5051862;28;20402;-67
2023/09/05 01:14:30;;;;;;;8.88;6.75;;;;;;;18.70;66.24;101879.44;5062815;28;20468;-67
2023/09/05 01:17:01;;;;;;;8.93;6.93;;;;;;;18.70;66.04;101868.19;5065528;28;20029;-67
2023/09/05 01:19:30;;;;;;;7.88;7.07;;;;;;;18.68;66.06;101873.22;5051862;28;20044;-67
2023/09/05 01:22:00;;;;;;;7.18;6.35;;;;;;;18.65;65.98;101863.38;5050316;28;20024;-67
2023/09/05 01:24:26;;;;;;;8.65;6.95;;;;;;;18.64;66.10;101872.09;5052042;28;20037;-67
2023/09/05 01:26:53;;;;;;;7.93;6.63;;;;;;;18.57;66.10;101874.34;5055328;28;20027;-67
2023/09/05 01:29:29;;;;;;;7.28;6.43;;;;;;;18.56;66.10;101873.53;5062361;28;20434;-66
2023/09/05 01:31:56;;;;;;;9.80;6.78;;;;;;;18.60;66.08;101873.81;5061917;28;20024;-67
2023/09/05 01:34:21;;;;;;;7.47;6.72;;;;;;;18.61;66.04;101886.72;5070828;28;20028;-67
2023/09/05 01:36:47;;;;;;;7.90;6.53;;;;;;;18.57;66.03;101883.63;5068641;28;20365;-67
2023/09/05 01:39:12;;;;;;;7.03;6.32;;;;;;;18.58;66.33;101882.50;5061006;28;20040;-67
2023/09/05 01:41:37;;;;;;;7.63;6.93;;;;;;;18.57;66.19;101883.63;5068828;28;20025;-66
2023/09/05 01:44:03;;;;;;;8.57;6.95;;;;;;;18.53;66.27;101887.28;5058867;28;20027;-67
2023/09/05 01:46:28;;;;;;;6.97;6.22;;;;;;;18.46;66.35;101892.34;5066778;28;20033;-67
2023/09/05 01:48:53;;;;;;;7.25;6.57;;;;;;;18.49;66.31;101875.75;5069517;28;20039;-67
2023/09/05 01:51:18;;;;;;;7.68;6.53;;;;;;;18.49;65.97;101878.59;5055765;28;20025;-67
2023/09/05 01:53:44;;;;;;;6.80;6.15;;;;;;;18.46;66.22;101870.69;5051302;28;20242;-66
2023/09/05 01:56:09;;;;;;;7.57;6.43;;;;;;;18.46;66.21;101872.69;5071369;28;20032;-67
2023/09/05 01:58:34;;;;;;;7.70;6.57;;;;;;;18.45;66.15;101874.66;5060476;28;20061;-66
2023/09/05 02:01:03;;;;;;;7.50;6.65;;;;;;;18.44;66.01;101877.75;5051540;28;20031;-67
2023/09/05 02:03:29;;;;;;;9.85;6.82;;;;;;;18.38;66.11;101874.91;5050092;28;20119;-67
2023/09/05 02:05:54;;;;;;;7.28;6.38;;;;;;;18.40;65.90;101878.31;5070456;28;20107;-67
2023/09/05 02:08:20;;;;;;;8.30;7.05;;;;;;;18.35;66.16;101874.63;5070145;28;20458;-67
2023/09/05 02:10:45;;;;;;;9.27;7.00;;;;;;;18.37;66.26;101878.03;5068591;28;20107;-66
2023/09/05 02:13:12;;;;;;;7.68;6.90;;;;;;;18.37;65.98;101867.63;5050807;28;20469;-67
2023/09/05 02:15:38;;;;;;;8.25;7.15;;;;;;;18.37;66.25;101867.63;5051027;28;20021;-67
2023/09/05 02:18:10;;;;;;;6.97;6.28;;;;;;;18.34;66.18;101868.16;5054566;28;20404;-66
2023/09/05 02:20:40;;;;;;;8.57;7.20;;;;;;;18.37;66.05;101872.41;5050796;28;20029;-67
2023/09/05 02:23:07;;;;;;;7.60;6.90;;;;;;;18.37;65.79;101870.44;5054835;28;20078;-66
2023/09/05 02:25:32;;;;;;;8.30;6.75;;;;;;;18.38;65.91;101868.47;5069331;28;20404;-66
2023/09/05 02:27:58;;;;;;;7.07;6.38;;;;;;;18.37;65.95;101864.81;5068128;28;20028;-66
2023/09/05 02:30:24;;;;;;;10.10;6.40;;;;;;;18.34;66.01;101864.53;5065608;28;20033;-67
2023/09/05 02:32:53;;;;;;;8.65;6.90;;;;;;;18.30;65.98;101858.63;5082517;28;20031;-66
2023/09/05 02:35:21;;;;;;;9.30;6.90;;;;;;;18.33;65.53;101862.84;5073076;28;20028;-67
2023/09/05 02:37:50;;;;;;;8.35;7.18;;;;;;;18.27;65.67;101873.22;5067585;28;20427;-66
2023/09/05 02:40:16;;;;;;;9.23;7.03;;;;;;;18.34;65.64;101872.94;5059485;28;20040;-67
2023/09/05 02:42:41;;;;;;;9.20;7.00;;;;;;;18.30;65.51;101875.47;5074694;28;20029;-67
2023/09/05 02:45:07;;;;;;;7.03;6.32;;;;;;;18.26;65.40;101874.34;5064163;28;20031;-67
2023/09/05 02:47:32;;;;;;;7.55;6.63;;;;;;;18.24;65.79;101870.16;5073004;28;20041;-66
2023/09/05 02:49:57;;;;;;;7.07;6.38;;;;;;;18.23;65.71;101863.66;5057092;28;20025;-67
2023/09/05 02:52:24;;;;;;;7.57;6.50;;;;;;;18.29;65.54;101862.56;5072071;28;20111;-67
2023/09/05 02:54:50;;;;;;;7.20;6.50;;;;;;;18.27;65.60;101853.56;5066160;28;20028;-67
2023/09/05 02:57:15;;;;;;;7.72;6.25;;;;;;;18.17;65.66;101856.38;5077374;28;20028;-68
2023/09/05 02:59:41;;;;;;;6.72;6.03;;;;;;;18.20;65.73;101855.81;5076501;28;20491;-67
2023/09/05 03:02:06;;;;;;;8.32;5.90;;;;;;;18.11;65.74;101849.88;5082746;28;20032;-67
2023/09/05 03:04:32;;;;;;;7.18;6.50;;;;;;;18.11;65.75;101851.84;5077125;28;20468;-66
2023/09/05 03:07:00;;;;;;;9.20;6.10;;;;;;;18.11;65.72;101846.25;5074428;28;20059;-66
2023/09/05 03:09:25;;;;;;;8.13;6.55;;;;;;;18.16;65.83;101843.44;5057129;28;20040;-67
2023/09/05 03:11:50;;;;;;;8.02;6.38;;;;;;;18.09;65.84;101851.31;5058130;28;20385;-67
2023/09/05 03:14:16;;;;;;;8.88;6.60;;;;;;;18.04;65.95;101848.50;5059893;28;20067;-66
2023/09/05 03:16:41;;;;;;;7.35;6.13;;;;;;;18.02;66.04;101845.13;5073356;28;20052;-67
2023/09/05 03:19:06;;;;;;;10.70;6.05;;;;;;;18.03;66.00;101856.06;5056782;28;20127;-66
2023/09/05 03:21:32;;;;;;;8.85;6.20;;;;;;;18.00;65.98;101853.84;5056768;28;20078;-66
2023/09/05 03:23:59;;;;;;;7.50;6.43;;;;;;;17.95;66.05;101859.41;5071584;28;20329;-66
2023/09/05 03:26:24;;;;;;;7.75;6.30;;;;;;;17.93;66.19;101855.22;5074658;28;20106;-67
2023/09/05 03:28:49;;;;;;;7.25;5.75;;;;;;;17.90;66.27;101851.00;5056173;28;20901;-67
2023/09/05 03:31:15;;;;;;;8.82;6.63;;;;;;;17.87;66.28;101849.56;5064397;28;20519;-66
2023/09/05 03:33:40;;;;;;;9.68;6.13;;;;;;;17.89;66.28;101847.34;5076953;28;20067;-66
2023/09/05 03:36:06;;;;;;;6.72;6.00;;;;;;;17.87;66.19;101843.13;5065823;28;20063;-66
2023/09/05 03:38:32;;;;;;;10.07;6.15;;;;;;;17.87;66.03;101851.53;5076855;28;20099;-66
2023/09/05 03:40:57;;;;;;;6.85;6.15;;;;;;;17.77;66.48;101843.97;5063880;28;20021;-66
2023/09/05 03:43:23;;;;;;;6.97;6.28;;;;;;;17.72;66.66;101835.47;5061003;28;20479;-66
2023/09/05 03:45:49;;;;;;;8.85;6.30;;;;;;;17.75;66.34;101840.56;5071242;28;20051;-67
2023/09/05 03:48:14;;;;;;;6.75;6.03;;;;;;;17.75;66.30;101845.34;5069934;28;20028;-67
2023/09/05 03:50:40;;;;;;;8.27;6.65;;;;;;;17.73;66.46;101845.59;5072662;28;20115;-67
2023/09/05 03:53:05;;;;;;;9.48;7.03;;;;;;;17.71;66.58;101842.22;5073595;28;20021;-67
2023/09/05 03:55:34;;;;;;;9.50;6.25;;;;;;;17.71;66.39;101838.56;5073156;28;20036;-67
2023/09/05 03:58:00;;;;;;;7.45;6.55;;;;;;;17.71;66.55;101839.41;5066085;28;20035;-66
2023/09/05 04:00:25;;;;;;;8.10;6.40;;;;;;;17.73;66.49;101840.00;5052402;28;20032;-66
2023/09/05 04:02:51;;;;;;;7.82;6.00;;;;;;;17.76;66.38;101833.81;5053701;28;20059;-66
2023/09/05 04:05:16;;;;;;;8.02;6.65;;;;;;;17.77;66.39;101834.69;5054072;28;20037;-66
2023/09/05 04:07:42;;;;;;;7.38;6.25;;;;;;;17.72;66.32;101835.47;5071356;28;20051;-66
2023/09/05 04:10:07;;;;;;;8.63;6.18;;;;;;;17.69;66.34;101841.66;5062584;28;20029;-66
2023/09/05 04:12:32;;;;;;;7.00;5.90;;;;;;;17.64;66.45;101839.69;5079932;28;20028;-67
2023/09/05 04:14:58;;;;;;;6.82;5.93;;;;;;;17.69;66.07;101829.59;5053033;28;20430;-66
2023/09/05 04:17:23;;;;;;;8.93;5.93;;;;;;;17.61;66.27;101825.34;5051287;28;20052;-66
2023/09/05 04:19:52;;;;;;;8.40;5.70;;;;;;;17.60;66.44;101826.47;5053288;28;20493;-68
2023/09/05 04:22:19;;;;;;;8.65;6.20;;;;;;;17.55;66.69;101820.84;5054984;28;20486;-67
2023/09/05 04:24:44;;;;;;;7.63;6.10;;;;;;;17.53;66.50;101818.31;5072061;28;20104;-67
2023/09/05 04:27:10;;;;;;;7.30;5.57;;;;;;;17.57;66.48;101819.44;5088004;28;20154;-68
2023/09/05 04:29:35;;;;;;;6.93;5.65;;;;;;;17.58;66.41;101817.50;5071218;28;20050;-69
2023/09/05 04:32:00;;;;;;;8.65;5.97;;;;;;;17.53;66.41;101817.47;5054911;28;20044;-67
2023/09/05 04:34:25;;;;;;;7.65;5.80;;;;;;;17.55;66.45;101818.03;5059766;28;20122;-67
2023/09/05 04:36:51;;;;;;;8.70;6.50;;;;;;;17.55;66.36;101820.84;5072512;28;20032;-68
2023/09/05 04:39:17;;;;;;;6.82;5.53;;;;;;;17.51;66.37;101825.31;5064736;28;20069;-68
2023/09/05 04:41:42;;;;;;;7.10;5.60;;;;;;;17.54;66.14;101821.97;5072034;28;20024;-67
2023/09/05 04:44:07;;;;;;;6.38;5.72;;;;;;;17.52;66.30;101818.56;5075164;28;20028;-68
2023/09/05 04:46:38;;;;;;;7.30;5.50;;;;;;;17.54;66.59;101821.97;5070373;28;20043;-68
2023/09/05 04:49:03;;;;;;;8.40;5.88;;;;;;;17.51;66.21;101802.88;5060847;28;20146;-67
2023/09/05 04:51:29;;;;;;;6.05;5.10;;;;;;;17.51;66.25;101808.47;5069088;28;20032;-68
2023/09/05 04:53:54;;;;;;;5.15;4.65;;;;;;;17.54;66.11;101807.94;5072393;28;20431;-68
2023/09/05 04:56:20;;;;;;;6.72;5.13;;;;;;;17.53;66.12;101818.31;5063499;28;20048;-67
2023/09/05 04:58:45;;;;;;;7.45;4.75;;;;;;;17.56;66.25;101814.09;5069119;28;20031;-68
2023/09/05 05:01:11;;;;;;;6.80;4.97;;;;;;;17.51;66.28;101819.72;5062196;28;20037;-68
2023/09/05 05:03:36;;;;;;;6.18;5.05;;;;;;;17.51;66.28;101811.28;5055372;28;20037;-67
2023/09/05 05:06:02;;;;;;;6.05;5.07;;;;;;;17.42;66.52;101814.63;5055165;28;20530;-67
2023/09/05 05:08:28;;;;;;;6.95;4.90;;;;;;;17.48;66.38;101812.66;5071821;28;20028;-68
2023/09/05 05:10:54;;;;;;;5.85;4.97;;;;;;;17.48;66.40;101815.47;5072387;28;20032;-68
2023/09/05 05:13:20;;;;;;;5.40;4.90;;;;;;;17.50;66.23;101820.84;5071514;28;20082;-68
2023/09/05 05:15:46;;;;;;;6.32;4.80;;;;;;;17.49;66.14;101825.59;5070270;28;20563;-67
2023/09/05 05:18:12;;;;;;;7.07;5.07;;;;;;;17.43;66.70;101821.09;5072248;28;20048;-67
2023/09/05 05:20:37;;;;;;;6.40;5.25;;;;;;;17.47;66.30;101827.84;5054020;28;20032;-67
2023/09/05 05:23:04;;;;;;;4.47;4.07;;;;;;;17.46;66.41;101828.13;5079141;28;20039;-68
2023/09/05 05:25:29;;;;;;;6.18;4.80;;;;;;;17.43;66.50;101830.34;5076881;28;20063;-67
2023/09/05 05:27:54;;;;;;;5.38;4.68;;;;;;;17.45;66.69;101826.41;5069534;28;20068;-68
2023/09/05 05:30:20;;;;;;;6.22;5.28;;;;;;;17.43;66.75;101835.97;5066425;28;20625;-67
2023/09/05 05:32:47;;;;;;;6.05;4.20;;;;;;;17.39;67.02;101837.63;5054968;28;20051;-68
2023/09/05 05:35:12;;;;;;;6.15;4.60;;;;;;;17.31;67.26;101840.97;5051827;28;20056;-67
2023/09/05 05:37:37;;;;;;;5.43;4.40;;;;;;;17.36;67.11;101843.78;5061673;28;20106;-68
2023/09/05 05:40:03;;;;;;;5.03;4.53;;;;;;;17.35;67.36;101838.47;5065086;28;20094;-68
2023/09/05 05:42:29;;;;;;;9.50;4.60;;;;;;;17.35;67.34;101838.47;5050687;28;20032;-67
2023/09/05 05:44:54;;;;;;;6.25;4.60;;;;;;;17.43;67.03;101844.38;5051696;28;20021;-67
2023/09/05 05:47:20;;;;;;;6.20;4.60;;;;;;;17.47;67.00;101829.81;5053185;28;20048;-67
2023/09/05 05:49:45;;;;;;;5.38;4.72;;;;;;;17.43;67.56;101835.97;5050981;28;20465;-67
2023/09/05 05:52:11;;;;;;;5.55;4.50;;;;;;;17.47;67.17;101829.81;5064705;28;20111;-67
2023/09/05 05:54:36;;;;;;;10.02;4.93;;;;;;;17.49;67.23;101830.34;5077583;28;20367;-68
2023/09/05 05:57:02;;;;;;;7.63;5.43;;;;;;;17.51;67.22;101834.59;5064049;28;20478;-68
2023/09/05 05:59:28;;;;;;;7.78;5.00;;;;;;;17.51;67.64;101836.53;5051038;28;20029;-68
2023/09/05 06:01:55;;;;;;;5.78;4.63;;;;;;;17.56;67.38;101839.38;5078039;28;20641;-68
2023/09/05 06:04:20;;;;;;;7.60;4.78;;;;;;;17.57;67.71;101839.09;5072683;28;20032;-67
2023/09/05 06:06:48;;;;;;;6.70;5.10;;;;;;;17.61;67.87;101843.03;5058910;28;20385;-68
2023/09/05 06:09:14;;;;;;;8.30;4.90;;;;;;;17.72;67.70;101837.44;5058999;28;20047;-68
2023/09/05 06:11:40;;;;;;;7.82;5.60;;;;;;;17.80;67.17;101840.59;5069764;28;20032;-68
2023/09/05 06:14:05;;;;;;;8.75;4.75;;;;;;;17.87;66.73;101841.16;5054092;28;20028;-68
2023/09/05 06:16:30;;;;;;;6.53;5.00;;;;;;;17.93;66.96;101838.38;5063523;28;20055;-68
2023/09/05 06:18:56;;;;;;;10.13;5.50;;;;;;;18.05;66.40;101836.97;5070656;28;20119;-67
2023/09/05 06:21:21;;;;;;;7.82;4.40;;;;;;;18.13;65.28;101832.78;5071411;28;20062;-68
2023/09/05 06:23:46;;;;;;;8.93;5.05;;;;;;;18.21;65.58;101829.41;5070195;28;20074;-68
2023/09/05 06:26:12;;;;;;;8.73;4.43;;;;;;;18.30;65.25;101830.50;5067934;28;20407;-69
2023/09/05 06:28:37;;;;;;;6.22;4.07;;;;;;;18.36;65.11;101835.03;5067254;28;20117;-68
2023/09/05 06:31:04;;;;;;;6.68;4.43;;;;;;;18.44;65.12;101839.22;5064920;28;20051;-68
2023/09/05 06:33:29;;;;;;;6.15;4.40;;;;;;;18.54;64.67;101833.59;5062413;28;20028;-68
2023/09/05 06:35:55;;;;;;;4.40;3.67;;;;;;;18.68;67.71;101838.66;5070558;28;20460;-69
2023/09/05 06:38:23;;;;;;;6.90;3.00;;;;;;;18.79;68.11;101829.94;5068527;28;20124;-69
2023/09/05 06:40:49;;;;;;;3.33;2.83;;;;;;;18.96;68.05;101840.00;5062928;28;20025;-69
2023/09/05 06:43:15;;;;;;;3.08;2.78;;;;;;;19.04;67.45;101836.63;5061212;28;20047;-69
2023/09/05 06:45:40;;;;;;;3.95;3.08;;;;;;;19.14;66.49;101828.16;5071316;28;20554;-69
2023/09/05 06:48:06;;;;;;;7.78;3.97;;;;;;;19.11;64.73;101828.72;5051645;28;20029;-68
2023/09/05 06:50:31;;;;;;;4.28;2.90;;;;;;;19.25;65.72;101832.59;5058636;28;20464;-68
2023/09/05 06:52:57;;;;;;;5.82;3.38;;;;;;;19.29;65.18;101830.03;5059643;28;20028;-69
2023/09/05 06:55:22;;;;;;;6.50;3.20;;;;;;;19.41;65.13;101830.53;5064125;28;20506;-68
2023/09/05 06:57:47;;;;;;;5.75;3.47;;;;;;;19.35;61.83;101826.91;5067208;28;20028;-65
2023/09/05 07:00:13;;;;;;;8.77;3.70;;;;;;;19.47;63.73;101822.94;5060914;28;20028;-68
2023/09/05 07:02:38;;;;;;;4.40;2.95;;;;;;;19.57;64.76;101820.91;5050882;28;20534;-67
2023/09/05 07:05:04;;;;;;;7.68;3.22;;;;;;;19.70;64.77;101818.59;5066647;28;20105;-68
2023/09/05 07:07:29;;;;;;;5.25;3.15;;;;;;;19.75;64.19;101813.78;5055274;28;20399;-68
2023/09/05 07:09:55;;;;;;;3.88;3.42;;;;;;;19.76;62.92;101817.41;5054191;28;20087;-70
2023/09/05 07:12:20;;;;;;;3.33;2.97;;;;;;;19.91;63.98;101820.13;5060630;28;20029;-67
2023/09/05 07:14:45;;;;;;;4.93;3.38;;;;;;;19.98;62.77;101814.19;5072891;28;20036;-67
2023/09/05 07:17:11;;;;;;;4.13;2.70;;;;;;;20.07;63.12;101818.88;5068063;28;20113;-68
2023/09/05 07:19:37;;;;;;;4.80;2.97;;;;;;;20.08;62.48;101817.78;5063099;28;20400;-67
2023/09/05 07:22:03;;;;;;;7.10;3.47;;;;;;;20.14;61.24;101810.09;5073468;28;20035;-67
2023/09/05 07:24:28;;;;;;;4.72;2.88;;;;;;;20.21;61.92;101799.34;5073243;28;20050;-68
2023/09/05 07:26:54;;;;;;;7.22;2.78;;;;;;;20.25;60.47;101817.34;5060542;28;20059;-68
2023/09/05 07:29:20;;;;;;;4.15;3.00;;;;;;;20.40;61.58;101815.53;5053900;28;20515;-67
2023/09/05 07:31:45;;;;;;;4.18;2.90;;;;;;;20.49;61.36;101811.78;5070343;28;20039;-67
2023/09/05 07:34:10;;;;;;;5.47;3.17;;;;;;;20.52;60.96;101802.75;5070736;28;20052;-67
2023/09/05 07:36:36;;;;;;;5.25;2.95;;;;;;;20.53;59.26;101804.41;5053759;28;20047;-66
2023/09/05 07:39:04;;;;;;;5.43;3.10;;;;;;;20.69;59.43;101790.16;5056469;28;20033;-67
2023/09/05 07:41:31;;;;;;;4.65;2.85;;;;;;;20.83;60.35;101794.81;5052556;28;20025;-67
2023/09/05 07:43:57;;;;;;;3.08;2.78;;;;;;;20.90;59.35;101797.25;5067022;28;20035;-67
2023/09/05 07:46:22;;;;;;;3.70;3.00;;;;;;;20.95;59.21;101793.53;5066091;28;20045;-67
2023/09/05 07:48:48;;;;;;;4.13;2.80;;;;;;;21.00;58.42;101797.13;5059029;28;20540;-68
2023/09/05 07:51:14;;;;;;;3.55;3.03;;;;;;;21.10;58.68;101804.63;5057709;28;20507;-67
2023/09/05 07:53:49;;;;;;;4.55;2.75;;;;;;;21.22;59.40;101801.38;5072271;28;20387;-67
2023/09/05 07:56:14;;;;;;;5.22;2.80;;;;;;;21.29;58.13;101808.34;5087989;28;20352;-66
2023/09/05 07:58:39;;;;;;;4.72;3.20;;;;;;;21.32;57.05;101807.75;5064386;28;20032;-66
2023/09/05 08:01:09;;;;;;;4.32;2.83;;;;;;;21.47;57.60;101809.56;5058415;28;20557;-66
2023/09/05 08:03:36;;;;;;;7.25;3.28;;;;;;;21.58;57.39;101810.25;5077810;28;20028;-68
2023/09/05 08:06:03;;;;;;;5.03;3.08;;;;;;;21.68;57.45;101814.91;5061210;28;20107;-68
2023/09/05 08:08:28;;;;;;;4.10;2.88;;;;;;;21.78;57.51;101812.78;5074232;28;20025;-66
2023/09/05 08:10:53;;;;;;;5.93;2.90;;;;;;;21.80;55.67;101821.78;5066959;28;20037;-67
2023/09/05 08:13:19;;;;;;;8.35;3.42;;;;;;;21.94;57.30;101818.19;5054864;28;20029;-66
2023/09/05 08:15:46;;;;;;;4.20;2.75;;;;;;;22.05;57.00;101816.88;5059684;28;20558;-68
2023/09/05 08:18:12;;;;;;;6.88;2.65;;;;;;;22.10;55.62;101811.16;5064630;28;20044;-67
2023/09/05 08:20:39;;;;;;;7.03;2.70;;;;;;;22.22;55.89;101813.53;5058159;28;20108;-66
2023/09/05 08:23:06;;;;;;;5.47;2.83;;;;;;;22.35;56.45;101815.53;5067435;28;20090;-66
2023/09/05 08:25:31;;;;;;;7.57;3.10;;;;;;;22.37;55.31;101815.25;5058131;28;20048;-65
2023/09/05 08:27:56;;;;;;;5.47;3.00;;;;;;;22.46;55.49;101813.38;5069429;28;20028;-65
2023/09/05 08:30:24;;;;;;;3.72;2.70;;;;;;;22.60;54.59;101814.28;5067632;28;20023;-64
2023/09/05 08:32:50;;;;;;;3.65;2.40;;;;;;;22.70;54.12;101818.88;5070760;28;20032;-63
2023/09/05 08:35:16;;;;;;;4.80;2.40;;;;;;;22.80;54.02;101807.38;5065280;28;20029;-65
2023/09/05 08:37:41;;;;;;;7.38;2.83;;;;;;;22.84;53.83;101805.59;5069202;28;20480;-65
2023/09/05 08:40:08;;;;;;;4.43;2.60;;;;;;;22.89;53.30;101799.00;5070220;28;20032;-65
2023/09/05 08:42:37;;;;;;;6.05;2.80;;;;;;;23.00;53.13;101794.84;5068875;28;20033;-64
2023/09/05 08:45:03;;;;;;;4.22;2.75;;;;;;;23.11;53.38;101793.47;5063742;28;20037;-65
2023/09/05 08:47:29;;;;;;;4.22;2.53;;;;;;;23.21;52.80;101801.75;5070720;28;20123;-65
2023/09/05 08:49:54;;;;;;;6.07;2.90;;;;;;;23.27;52.14;101794.81;5070845;28;20460;-65
2023/09/05 08:52:20;;;;;;;15.23;3.15;;;;;;;23.36;51.81;101803.41;5075998;28;20028;-65
2023/09/05 08:54:47;;;;;;;8.80;2.60;;;;;;;23.38;51.87;101794.59;5062147;28;20025;-65
2023/09/05 08:57:17;;;;;;;5.53;2.47;;;;;;;23.42;51.76;101796.50;5080026;28;20050;-64
2023/09/05 08:59:42;;;;;;;7.07;2.90;;;;;;;23.55;51.90;101796.78;5066454;28;20028;-64
2023/09/05 09:02:09;;;;;;;4.80;2.40;;;;;;;23.56;51.03;101802.13;5055616;28;20082;-65
2023/09/05 09:04:48;;;;;;;3.00;2.45;;;;;;;23.71;52.40;101810.31;5063362;28;20033;-65
2023/09/05 09:07:14;;;;;;;4.35;2.88;;;;;;;23.74;50.94;101804.00;5063098;28;20119;-64
2023/09/05 09:09:40;;;;;;;3.80;2.58;;;;;;;23.84;50.49;101807.75;5069430;28;20112;-66
2023/09/05 09:12:06;;;;;;;3.80;2.55;;;;;;;23.95;50.56;101806.34;5069342;28;20040;-64
2023/09/05 09:14:31;;;;;;;5.40;2.70;;;;;;;24.08;50.87;101802.59;5070272;28;20044;-65
2023/09/05 09:17:05;;;;;;;4.45;2.60;;;;;;;24.12;50.88;101814.97;5065851;28;20036;-64
2023/09/05 09:19:31;;;;;;;6.70;2.80;;;;;;;24.24;50.30;101809.56;5066346;28;20073;-64
2023/09/05 09:22:02;;;;;;;5.00;2.58;;;;;;;24.24;50.05;101814.41;5060235;28;20043;-66
2023/09/05 09:24:34;;;;;;;4.13;2.33;;;;;;;24.23;50.00;101813.56;5062005;28;20028;-65
2023/09/05 09:27:05;;;;;;;4.90;2.65;;;;;;;24.28;50.18;101817.44;5065637;28;20027;-65
2023/09/05 09:29:31;;;;;;;6.13;2.58;;;;;;;24.28;49.48;101823.09;5066865;28;20089;-65
2023/09/05 09:32:06;;;;;;;4.80;2.95;;;;;;;24.25;50.40;101813.25;5067695;28;20070;-65
2023/09/05 09:34:35;;;;;;;3.95;2.65;;;;;;;24.32;49.41;101818.47;5059651;28;20024;-66
2023/09/05 09:37:00;;;;;;;4.55;2.67;;;;;;;24.37;49.68;101821.19;5061615;28;20434;-65
2023/09/05 09:39:28;;;;;;;5.35;2.63;;;;;;;24.48;49.99;101825.44;5066223;28;20029;-65
2023/09/05 09:41:58;;;;;;;5.93;2.90;;;;;;;24.55;49.65;101820.16;5061002;28;20075;-65
2023/09/05 09:44:32;;;;;;;7.65;2.63;;;;;;;24.58;50.29;101818.66;5056256;28;20081;-68
2023/09/05 09:46:59;;;;;;;5.85;2.65;;;;;;;24.60;49.38;101825.72;5058974;28;20356;-67
2023/09/05 09:49:26;;;;;;;6.47;2.90;;;;;;;24.62;49.57;101825.38;5065207;28;20069;-68
2023/09/05 09:51:54;;;;;;;6.22;2.70;;;;;;;24.79;49.39;101828.28;5062495;28;20072;-68
2023/09/05 09:54:29;;;;;;;8.13;2.75;;;;;;;24.84;49.85;101822.50;5064964;28;20036;-68
2023/09/05 09:56:58;;;;;;;4.30;2.42;;;;;;;24.93;49.34;101819.69;5064410;28;20395;-68
2023/09/05 09:59:27;;;;;;;4.50;2.50;;;;;;;24.93;48.86;101820.53;5051875;28;20039;-67
2023/09/05 10:01:54;;;;;;;5.32;2.90;;;;;;;24.97;49.38;101813.03;5068117;28;20036;-66
2023/09/05 10:04:21;;;;;;;5.72;2.88;;;;;;;25.00;48.89;101811.53;5064984;28;20031;-66
2023/09/05 10:06:48;;;;;;;5.47;2.85;;;;;;;25.05;49.57;101825.59;5056574;28;20036;-63
2023/09/05 10:09:15;;;;;;;3.83;2.47;;;;;;;25.05;49.32;101814.22;5065109;28;20038;-64
2023/09/05 10:11:42;;;;;;;3.67;2.70;;;;;;;25.05;48.53;101810.56;5067792;28;20762;-64
2023/09/05 10:14:07;;;;;;;4.85;2.42;;;;;;;25.14;49.36;101808.59;5056067;28;20033;-64
2023/09/05 10:16:34;;;;;;;7.20;2.65;;;;;;;25.16;48.95;101803.44;5057934;28;20085;-66
2023/09/05 10:18:59;;;;;;;4.38;2.58;;;;;;;25.19;49.03;101797.06;5064251;28;20037;-63
2023/09/05 10:21:25;;;;;;;4.57;2.90;;;;;;;25.26;48.96;101788.91;5056412;28;20074;-65
2023/09/05 10:23:53;;;;;;;3.92;2.40;;;;;;;25.26;49.20;101797.44;5064648;28;20568;-65
2023/09/05 10:26:19;;;;;;;4.80;2.50;;;;;;;25.25;47.93;101801.44;5057846;28;20438;-65
2023/09/05 10:28:46;;;;;;;3.30;2.78;;;;;;;25.32;48.68;101803.81;5068304;28;20065;-65
2023/09/05 10:31:13;;;;;;;3.53;2.28;;;;;;;25.42;48.24;101803.50;5088853;28;20032;-64
2023/09/05 10:33:41;;;;;;;2.97;2.45;;;;;;;25.41;47.48;101796.97;5090464;28;20028;-65
2023/09/05 10:36:39;;;;;;;2.70;2.50;;;;;;;25.35;48.30;101794.59;5089871;28;20035;-65
2023/09/05 10:39:22;;;;;;;6.38;2.53;;;;;;;25.45;49.28;101800.81;5055311;28;20059;-66
2023/09/05 10:41:47;;;;;;;8.68;2.72;;;;;;;25.49;49.57;101791.63;5059396;28;20032;-67
2023/09/05 10:44:13;;;;;;;5.43;2.30;;;;;;;25.66;48.30;101791.66;5051853;28;20029;-65
2023/09/05 10:46:39;;;;;;;3.10;2.20;;;;;;;25.62;47.73;101793.50;5052789;28;20033;-65
2023/09/05 10:49:10;;;;;;;4.93;2.28;;;;;;;25.54;47.57;101795.16;5049053;28;20075;-66
2023/09/05 10:51:35;;;;;;;4.72;2.58;;;;;;;25.55;47.59;101788.31;5049650;28;20432;-65
2023/09/05 10:54:26;;;;;;;5.85;2.40;;;;;;;25.55;48.34;101794.00;5052833;28;20056;-65
2023/09/05 10:56:51;;;;;;;4.65;2.60;;;;;;;25.68;48.79;101787.31;5064888;28;20097;-66
2023/09/05 10:59:27;;;;;;;3.50;2.42;;;;;;;25.67;47.09;101776.28;5055048;28;20504;-66
2023/09/05 11:02:00;;;;;;;3.50;2.40;;;;;;;25.80;46.80;101780.16;5060063;28;20032;-67
2023/09/05 11:04:29;;;;;;;3.17;2.33;;;;;;;25.86;46.59;101778.81;5069727;28;20451;-66
2023/09/05 11:07:00;;;;;;;5.82;2.28;;;;;;;25.99;46.80;101774.97;5072664;28;20032;-65
2023/09/05 11:09:26;;;;;;;3.50;2.58;;;;;;;26.06;47.41;101781.00;5069992;28;20037;-65
2023/09/05 11:11:53;;;;;;;3.08;2.30;;;;;;;26.08;47.41;101775.78;5056882;28;20025;-67
2023/09/05 11:14:32;;;;;;;2.55;2.20;;;;;;;26.00;47.89;101768.09;5064461;28;20021;-67
2023/09/05 11:16:57;;;;;;;4.43;2.53;;;;;;;26.10;48.21;101764.09;5064104;28;20524;-66
2023/09/05 11:19:38;;;;;;;5.43;2.47;;;;;;;26.05;48.42;101772.78;5064539;28;20072;-66
2023/09/05 11:22:15;;;;;;;5.55;2.42;;;;;;;26.01;47.52;101784.00;5061997;28;20039;-66
2023/09/05 11:24:47;;;;;;;4.45;2.30;;;;;;;25.93;46.99;101777.13;5053923;28;20381;-67